sensor_id;sensor_type;location;lat;lon;timestamp;temperature;humidity
3923;DHT22;1976;51.694;6.256;2024-02-04T00:01:29;10.90;99.90
3923;DHT22;1976;51.694;6.256;2024-02-04T00:03:54;10.80;99.90
3923;DHT22;1976;51.694;6.256;2024-02-04T00:06:20;10.80;99.90
3923;DHT22;1976;51.694;6.256;2024-02-04T00:08:46;10.80;99.90
3923;DHT22;1976;51.694;6.256;2024-02-04T00:11:12;10.80;99.90
3923;DHT22;1976;51.694;6.256;2024-02-04T00:13:38;10.70;99.90
3923;DHT22;1976;51.694;6.256;2024-02-04T00:16:04;10.70;99.90
3923;DHT22;1976;51.694;6.256;2024-02-04T00:18:30;10.70;99.90
3923;DHT22;1976;51.694;6.256;2024-02-04T00:20:56;10.60;99.90
3923;DHT22;1976;51.694;6.256;2024-02-04T00:23:21;10.70;99.90
3923;DHT22;1976;51.694;6.256;2024-02-04T00:25:47;10.60;99.90
3923;DHT22;1976;51.694;6.256;2024-02-04T00:28:12;10.70;99.90
3923;DHT22;1976;51.694;6.256;2024-02-04T00:30:38;10.70;99.90
3923;DHT22;1976;51.694;6.256;2024-02-04T00:33:04;10.60;99.90
3923;DHT22;1976;51.694;6.256;2024-02-04T00:35:30;10.60;99.90
3923;DHT22;1976;51.694;6.256;2024-02-04T00:37:56;10.60;99.90
3923;DHT22;1976;51.694;6.256;2024-02-04T00:40:22;10.60;99.90
3923;DHT22;1976;51.694;6.256;2024-02-04T00:42:47;10.60;99.90
3923;DHT22;1976;51.694;6.256;2024-02-04T00:45:13;10.70;99.90
3923;DHT22;1976;51.694;6.256;2024-02-04T00:47:39;10.70;99.90
3923;DHT22;1976;51.694;6.256;2024-02-04T00:50:05;10.70;99.90
3923;DHT22;1976;51.694;6.256;2024-02-04T00:52:30;10.70;99.90
3923;DHT22;1976;51.694;6.256;2024-02-04T00:54:56;10.70;99.90
3923;DHT22;1976;51.694;6.256;2024-02-04T00:57:21;10.80;99.90
3923;DHT22;1976;51.694;6.256;2024-02-04T00:59:47;10.90;99.90
3923;DHT22;1976;51.694;6.256;2024-02-04T01:02:13;10.90;99.90
3923;DHT22;1976;51.694;6.256;2024-02-04T01:04:38;10.90;99.90
3923;DHT22;1976;51.694;6.256;2024-02-04T01:07:04;10.90;99.90
3923;DHT22;1976;51.694;6.256;2024-02-04T01:09:29;10.90;99.90
3923;DHT22;1976;51.694;6.256;2024-02-04T01:11:55;10.90;99.90
3923;DHT22;1976;51.694;6.256;2024-02-04T01:14:21;11.00;99.90
3923;DHT22;1976;51.694;6.256;2024-02-04T01:16:46;11.00;99.90
3923;DHT22;1976;51.694;6.256;2024-02-04T01:19:12;11.00;99.90
3923;DHT22;1976;51.694;6.256;2024-02-04T01:21:37;11.00;99.90
3923;DHT22;1976;51.694;6.256;2024-02-04T01:24:03;11.00;99.90
3923;DHT22;1976;51.694;6.256;2024-02-04T01:26:28;11.00;99.90
3923;DHT22;1976;51.694;6.256;2024-02-04T01:28:54;11.00;99.90
3923;DHT22;1976;51.694;6.256;2024-02-04T01:31:20;11.10;99.90
3923;DHT22;1976;51.694;6.256;2024-02-04T01:33:45;11.10;99.90
3923;DHT22;1976;51.694;6.256;2024-02-04T01:36:11;11.10;99.90
3923;DHT22;1976;51.694;6.256;2024-02-04T01:38:36;11.00;99.90
3923;DHT22;1976;51.694;6.256;2024-02-04T01:41:02;11.00;99.90
3923;DHT22;1976;51.694;6.256;2024-02-04T01:43:27;11.10;99.90
3923;DHT22;1976;51.694;6.256;2024-02-04T01:45:53;11.00;99.90
3923;DHT22;1976;51.694;6.256;2024-02-04T01:48:22;11.00;99.90
3923;DHT22;1976;51.694;6.256;2024-02-04T01:50:52;11.00;99.90
3923;DHT22;1976;51.694;6.256;2024-02-04T01:53:22;11.00;99.90
3923;DHT22;1976;51.694;6.256;2024-02-04T01:55:48;11.00;99.90
3923;DHT22;1976;51.694;6.256;2024-02-04T01:58:15;11.00;99.90
3923;DHT22;1976;51.694;6.256;2024-02-04T02:00:40;11.00;99.90
3923;DHT22;1976;51.694;6.256;2024-02-04T02:03:06;11.00;99.90
3923;DHT22;1976;51.694;6.256;2024-02-04T02:05:35;11.00;99.90
3923;DHT22;1976;51.694;6.256;2024-02-04T02:08:01;11.00;99.90
3923;DHT22;1976;51.694;6.256;2024-02-04T02:10:26;11.00;99.90
3923;DHT22;1976;51.694;6.256;2024-02-04T02:15:29;11.00;99.90
3923;DHT22;1976;51.694;6.256;2024-02-04T02:18:12;11.00;99.90
3923;DHT22;1976;51.694;6.256;2024-02-04T02:21:50;11.00;99.90
3923;DHT22;1976;51.694;6.256;2024-02-04T02:24:11;11.00;99.90
3923;DHT22;1976;51.694;6.256;2024-02-04T02:26:40;11.00;99.90
3923;DHT22;1976;51.694;6.256;2024-02-04T02:29:06;11.00;99.90
3923;DHT22;1976;51.694;6.256;2024-02-04T02:31:35;11.00;99.90
3923;DHT22;1976;51.694;6.256;2024-02-04T02:34:00;11.00;99.90
3923;DHT22;1976;51.694;6.256;2024-02-04T02:36:29;11.00;99.90
3923;DHT22;1976;51.694;6.256;2024-02-04T02:39:18;11.00;99.90
3923;DHT22;1976;51.694;6.256;2024-02-04T02:41:49;11.00;99.90
3923;DHT22;1976;51.694;6.256;2024-02-04T02:44:15;11.10;99.90
3923;DHT22;1976;51.694;6.256;2024-02-04T02:46:41;11.00;99.90
3923;DHT22;1976;51.694;6.256;2024-02-04T02:49:07;11.10;99.90
3923;DHT22;1976;51.694;6.256;2024-02-04T02:51:33;11.10;99.90
3923;DHT22;1976;51.694;6.256;2024-02-04T02:53:58;11.10;99.90
3923;DHT22;1976;51.694;6.256;2024-02-04T02:56:24;11.20;99.90
3923;DHT22;1976;51.694;6.256;2024-02-04T02:58:49;11.10;99.90
3923;DHT22;1976;51.694;6.256;2024-02-04T03:01:15;11.10;99.90
3923;DHT22;1976;51.694;6.256;2024-02-04T03:03:41;11.20;99.90
3923;DHT22;1976;51.694;6.256;2024-02-04T03:06:06;11.10;99.90
3923;DHT22;1976;51.694;6.256;2024-02-04T03:08:33;11.10;99.90
3923;DHT22;1976;51.694;6.256;2024-02-04T03:10:58;11.10;99.90
3923;DHT22;1976;51.694;6.256;2024-02-04T03:13:24;11.10;99.90
3923;DHT22;1976;51.694;6.256;2024-02-04T03:15:49;11.20;99.90
3923;DHT22;1976;51.694;6.256;2024-02-04T03:18:15;11.20;99.90
3923;DHT22;1976;51.694;6.256;2024-02-04T03:20:40;11.30;99.90
3923;DHT22;1976;51.694;6.256;2024-02-04T03:23:06;11.20;99.90
3923;DHT22;1976;51.694;6.256;2024-02-04T03:25:32;11.30;99.90
3923;DHT22;1976;51.694;6.256;2024-02-04T03:27:57;11.20;99.90
3923;DHT22;1976;51.694;6.256;2024-02-04T03:30:23;11.20;99.90
3923;DHT22;1976;51.694;6.256;2024-02-04T03:32:48;11.20;99.90
3923;DHT22;1976;51.694;6.256;2024-02-04T03:35:14;11.20;99.90
3923;DHT22;1976;51.694;6.256;2024-02-04T03:37:39;11.20;99.90
3923;DHT22;1976;51.694;6.256;2024-02-04T03:40:05;11.20;99.90
3923;DHT22;1976;51.694;6.256;2024-02-04T03:42:31;11.20;99.90
3923;DHT22;1976;51.694;6.256;2024-02-04T03:44:56;11.20;99.90
3923;DHT22;1976;51.694;6.256;2024-02-04T03:47:22;11.20;99.90
3923;DHT22;1976;51.694;6.256;2024-02-04T03:49:47;11.30;99.90
3923;DHT22;1976;51.694;6.256;2024-02-04T03:52:13;11.30;99.90
3923;DHT22;1976;51.694;6.256;2024-02-04T03:54:38;11.30;99.90
3923;DHT22;1976;51.694;6.256;2024-02-04T03:57:04;11.40;99.90
3923;DHT22;1976;51.694;6.256;2024-02-04T03:59:29;11.40;99.90
3923;DHT22;1976;51.694;6.256;2024-02-04T04:01:55;11.40;99.90
3923;DHT22;1976;51.694;6.256;2024-02-04T04:04:23;11.40;99.90
3923;DHT22;1976;51.694;6.256;2024-02-04T04:06:48;11.30;99.90
3923;DHT22;1976;51.694;6.256;2024-02-04T04:09:14;11.30;99.90
3923;DHT22;1976;51.694;6.256;2024-02-04T04:11:40;11.20;99.90
3923;DHT22;1976;51.694;6.256;2024-02-04T04:14:05;11.20;99.90
3923;DHT22;1976;51.694;6.256;2024-02-04T04:16:31;11.10;99.90
3923;DHT22;1976;51.694;6.256;2024-02-04T04:18:57;11.00;99.90
3923;DHT22;1976;51.694;6.256;2024-02-04T04:21:24;10.90;99.90
3923;DHT22;1976;51.694;6.256;2024-02-04T04:23:49;10.90;99.90
3923;DHT22;1976;51.694;6.256;2024-02-04T04:26:15;10.80;99.90
3923;DHT22;1976;51.694;6.256;2024-02-04T04:28:41;10.80;99.90
3923;DHT22;1976;51.694;6.256;2024-02-04T04:31:06;10.70;99.90
3923;DHT22;1976;51.694;6.256;2024-02-04T04:33:32;10.70;99.90
3923;DHT22;1976;51.694;6.256;2024-02-04T04:35:58;10.70;99.90
3923;DHT22;1976;51.694;6.256;2024-02-04T04:38:23;10.70;99.90
3923;DHT22;1976;51.694;6.256;2024-02-04T04:40:49;10.80;99.90
3923;DHT22;1976;51.694;6.256;2024-02-04T04:43:14;10.80;99.90
3923;DHT22;1976;51.694;6.256;2024-02-04T04:45:40;10.80;99.90
3923;DHT22;1976;51.694;6.256;2024-02-04T04:48:06;10.80;99.90
3923;DHT22;1976;51.694;6.256;2024-02-04T04:50:33;10.80;99.90
3923;DHT22;1976;51.694;6.256;2024-02-04T04:52:59;10.80;99.90
3923;DHT22;1976;51.694;6.256;2024-02-04T04:55:24;10.80;99.90
3923;DHT22;1976;51.694;6.256;2024-02-04T04:57:50;10.80;99.90
3923;DHT22;1976;51.694;6.256;2024-02-04T05:00:17;10.70;99.90
3923;DHT22;1976;51.694;6.256;2024-02-04T05:02:43;10.70;99.90
3923;DHT22;1976;51.694;6.256;2024-02-04T05:05:12;10.80;99.90
3923;DHT22;1976;51.694;6.256;2024-02-04T05:07:38;10.80;99.90
3923;DHT22;1976;51.694;6.256;2024-02-04T05:10:04;10.70;99.90
3923;DHT22;1976;51.694;6.256;2024-02-04T05:12:30;10.70;99.90
3923;DHT22;1976;51.694;6.256;2024-02-04T05:14:56;10.70;99.90
3923;DHT22;1976;51.694;6.256;2024-02-04T05:17:22;10.70;99.90
3923;DHT22;1976;51.694;6.256;2024-02-04T05:19:47;10.60;99.90
3923;DHT22;1976;51.694;6.256;2024-02-04T05:22:13;10.60;99.90
3923;DHT22;1976;51.694;6.256;2024-02-04T05:24:38;10.60;99.90
3923;DHT22;1976;51.694;6.256;2024-02-04T05:27:04;10.60;99.90
3923;DHT22;1976;51.694;6.256;2024-02-04T05:29:31;10.60;99.90
3923;DHT22;1976;51.694;6.256;2024-02-04T05:31:56;10.50;99.90
3923;DHT22;1976;51.694;6.256;2024-02-04T05:34:22;10.50;99.90
3923;DHT22;1976;51.694;6.256;2024-02-04T05:36:48;10.40;99.90
3923;DHT22;1976;51.694;6.256;2024-02-04T05:39:15;10.40;99.90
3923;DHT22;1976;51.694;6.256;2024-02-04T05:41:41;10.40;99.90
3923;DHT22;1976;51.694;6.256;2024-02-04T05:44:08;10.50;99.90
3923;DHT22;1976;51.694;6.256;2024-02-04T05:46:37;10.60;99.90
3923;DHT22;1976;51.694;6.256;2024-02-04T05:49:03;10.50;99.90
3923;DHT22;1976;51.694;6.256;2024-02-04T05:51:30;10.60;99.90
3923;DHT22;1976;51.694;6.256;2024-02-04T05:53:56;10.60;99.90
3923;DHT22;1976;51.694;6.256;2024-02-04T05:56:22;10.60;99.90
3923;DHT22;1976;51.694;6.256;2024-02-04T05:58:47;10.60;99.90
3923;DHT22;1976;51.694;6.256;2024-02-04T06:01:14;10.60;99.90
3923;DHT22;1976;51.694;6.256;2024-02-04T06:03:41;10.70;99.90
3923;DHT22;1976;51.694;6.256;2024-02-04T06:06:08;10.70;99.90
3923;DHT22;1976;51.694;6.256;2024-02-04T06:08:33;10.70;99.90
3923;DHT22;1976;51.694;6.256;2024-02-04T06:10:59;10.70;99.90
3923;DHT22;1976;51.694;6.256;2024-02-04T06:13:24;10.70;99.90
3923;DHT22;1976;51.694;6.256;2024-02-04T06:15:50;10.70;99.90
3923;DHT22;1976;51.694;6.256;2024-02-04T06:18:15;10.80;99.90
3923;DHT22;1976;51.694;6.256;2024-02-04T06:20:41;10.70;99.90
3923;DHT22;1976;51.694;6.256;2024-02-04T06:23:07;10.70;99.90
3923;DHT22;1976;51.694;6.256;2024-02-04T06:25:32;10.60;99.90
3923;DHT22;1976;51.694;6.256;2024-02-04T06:27:58;10.70;99.90
3923;DHT22;1976;51.694;6.256;2024-02-04T06:30:24;10.70;99.90
3923;DHT22;1976;51.694;6.256;2024-02-04T06:32:49;10.70;99.90
3923;DHT22;1976;51.694;6.256;2024-02-04T06:35:16;10.70;99.90
3923;DHT22;1976;51.694;6.256;2024-02-04T06:37:42;10.70;99.90
3923;DHT22;1976;51.694;6.256;2024-02-04T06:40:10;10.70;99.90
3923;DHT22;1976;51.694;6.256;2024-02-04T06:42:36;10.70;99.90
3923;DHT22;1976;51.694;6.256;2024-02-04T06:45:02;10.80;99.90
3923;DHT22;1976;51.694;6.256;2024-02-04T06:47:27;10.70;99.90
3923;DHT22;1976;51.694;6.256;2024-02-04T06:49:53;10.80;99.90
3923;DHT22;1976;51.694;6.256;2024-02-04T06:52:18;10.80;99.90
3923;DHT22;1976;51.694;6.256;2024-02-04T06:54:44;10.80;99.90
3923;DHT22;1976;51.694;6.256;2024-02-04T06:57:10;10.80;99.90
3923;DHT22;1976;51.694;6.256;2024-02-04T06:59:36;10.80;99.90
3923;DHT22;1976;51.694;6.256;2024-02-04T07:02:01;10.80;99.90
3923;DHT22;1976;51.694;6.256;2024-02-04T07:04:27;10.80;99.90
3923;DHT22;1976;51.694;6.256;2024-02-04T07:06:52;10.80;99.90
3923;DHT22;1976;51.694;6.256;2024-02-04T07:09:18;10.80;99.90
3923;DHT22;1976;51.694;6.256;2024-02-04T07:11:44;10.80;99.90
3923;DHT22;1976;51.694;6.256;2024-02-04T07:14:09;10.80;99.90
3923;DHT22;1976;51.694;6.256;2024-02-04T07:16:35;10.80;99.90
3923;DHT22;1976;51.694;6.256;2024-02-04T07:19:01;10.80;99.90
3923;DHT22;1976;51.694;6.256;2024-02-04T07:21:26;10.80;99.90
3923;DHT22;1976;51.694;6.256;2024-02-04T07:23:52;10.80;99.90
3923;DHT22;1976;51.694;6.256;2024-02-04T07:26:17;10.80;99.90
3923;DHT22;1976;51.694;6.256;2024-02-04T07:28:43;10.80;99.90
3923;DHT22;1976;51.694;6.256;2024-02-04T07:31:09;10.90;99.90
3923;DHT22;1976;51.694;6.256;2024-02-04T07:33:34;10.80;99.90
3923;DHT22;1976;51.694;6.256;2024-02-04T07:36:00;10.80;99.90
3923;DHT22;1976;51.694;6.256;2024-02-04T07:38:25;10.70;99.90
3923;DHT22;1976;51.694;6.256;2024-02-04T07:40:51;10.70;99.90
3923;DHT22;1976;51.694;6.256;2024-02-04T07:43:16;10.70;99.90
3923;DHT22;1976;51.694;6.256;2024-02-04T07:45:42;10.70;99.90
3923;DHT22;1976;51.694;6.256;2024-02-04T07:48:07;10.70;99.90
3923;DHT22;1976;51.694;6.256;2024-02-04T07:50:34;10.60;99.90
3923;DHT22;1976;51.694;6.256;2024-02-04T07:53:00;10.60;99.90
3923;DHT22;1976;51.694;6.256;2024-02-04T07:55:26;10.60;99.90
3923;DHT22;1976;51.694;6.256;2024-02-04T07:57:51;10.60;99.90
3923;DHT22;1976;51.694;6.256;2024-02-04T08:00:17;10.60;99.90
3923;DHT22;1976;51.694;6.256;2024-02-04T08:02:44;10.60;99.90
3923;DHT22;1976;51.694;6.256;2024-02-04T08:05:10;10.60;99.90
3923;DHT22;1976;51.694;6.256;2024-02-04T08:07:36;10.60;99.90
3923;DHT22;1976;51.694;6.256;2024-02-04T08:10:02;10.60;99.90
3923;DHT22;1976;51.694;6.256;2024-02-04T08:12:28;10.60;99.90
3923;DHT22;1976;51.694;6.256;2024-02-04T08:14:53;10.70;99.90
3923;DHT22;1976;51.694;6.256;2024-02-04T08:17:19;10.70;99.90
3923;DHT22;1976;51.694;6.256;2024-02-04T08:19:44;10.70;99.90
3923;DHT22;1976;51.694;6.256;2024-02-04T08:22:10;10.60;99.90
3923;DHT22;1976;51.694;6.256;2024-02-04T08:24:36;10.60;99.90
3923;DHT22;1976;51.694;6.256;2024-02-04T08:27:01;10.50;99.90
3923;DHT22;1976;51.694;6.256;2024-02-04T08:29:27;10.40;99.90
3923;DHT22;1976;51.694;6.256;2024-02-04T08:31:53;10.40;99.90
3923;DHT22;1976;51.694;6.256;2024-02-04T08:34:19;10.30;99.90
3923;DHT22;1976;51.694;6.256;2024-02-04T08:36:51;10.30;99.90
3923;DHT22;1976;51.694;6.256;2024-02-04T08:39:17;10.30;99.90
3923;DHT22;1976;51.694;6.256;2024-02-04T08:41:42;10.20;99.90
3923;DHT22;1976;51.694;6.256;2024-02-04T08:44:08;10.20;99.90
3923;DHT22;1976;51.694;6.256;2024-02-04T08:46:33;10.30;99.90
3923;DHT22;1976;51.694;6.256;2024-02-04T08:48:59;10.20;99.90
3923;DHT22;1976;51.694;6.256;2024-02-04T08:51:24;10.30;99.90
3923;DHT22;1976;51.694;6.256;2024-02-04T08:53:50;10.30;99.90
3923;DHT22;1976;51.694;6.256;2024-02-04T08:56:15;10.40;99.90
3923;DHT22;1976;51.694;6.256;2024-02-04T08:58:41;10.40;99.90
3923;DHT22;1976;51.694;6.256;2024-02-04T09:01:07;10.40;99.90
3923;DHT22;1976;51.694;6.256;2024-02-04T09:03:32;10.40;99.90
3923;DHT22;1976;51.694;6.256;2024-02-04T09:05:59;10.50;99.90
3923;DHT22;1976;51.694;6.256;2024-02-04T09:08:24;10.50;99.90
3923;DHT22;1976;51.694;6.256;2024-02-04T09:10:50;10.60;99.90
3923;DHT22;1976;51.694;6.256;2024-02-04T09:13:16;10.60;99.90
3923;DHT22;1976;51.694;6.256;2024-02-04T09:15:42;10.60;99.90
3923;DHT22;1976;51.694;6.256;2024-02-04T09:18:07;10.60;99.90
3923;DHT22;1976;51.694;6.256;2024-02-04T09:20:33;10.60;99.90
3923;DHT22;1976;51.694;6.256;2024-02-04T09:22:58;10.60;99.90
3923;DHT22;1976;51.694;6.256;2024-02-04T09:25:25;10.60;99.90
3923;DHT22;1976;51.694;6.256;2024-02-04T09:27:50;10.70;99.90
3923;DHT22;1976;51.694;6.256;2024-02-04T09:30:16;10.70;99.90
3923;DHT22;1976;51.694;6.256;2024-02-04T09:32:42;10.80;99.90
3923;DHT22;1976;51.694;6.256;2024-02-04T09:35:07;10.80;99.90
3923;DHT22;1976;51.694;6.256;2024-02-04T09:37:34;10.80;99.90
3923;DHT22;1976;51.694;6.256;2024-02-04T09:40:00;10.80;99.90
3923;DHT22;1976;51.694;6.256;2024-02-04T09:42:26;10.80;99.90
3923;DHT22;1976;51.694;6.256;2024-02-04T09:44:53;10.90;99.90
3923;DHT22;1976;51.694;6.256;2024-02-04T09:47:20;10.90;99.90
3923;DHT22;1976;51.694;6.256;2024-02-04T09:49:46;10.90;99.90
3923;DHT22;1976;51.694;6.256;2024-02-04T09:52:13;10.90;99.90
3923;DHT22;1976;51.694;6.256;2024-02-04T09:54:48;10.90;99.90
3923;DHT22;1976;51.694;6.256;2024-02-04T09:57:14;10.90;99.90
3923;DHT22;1976;51.694;6.256;2024-02-04T09:59:41;10.90;99.90
3923;DHT22;1976;51.694;6.256;2024-02-04T10:02:08;11.00;99.90
3923;DHT22;1976;51.694;6.256;2024-02-04T10:04:35;11.00;99.90
3923;DHT22;1976;51.694;6.256;2024-02-04T10:07:01;11.00;99.90
3923;DHT22;1976;51.694;6.256;2024-02-04T10:09:27;11.10;99.90
3923;DHT22;1976;51.694;6.256;2024-02-04T10:11:52;11.20;99.90
3923;DHT22;1976;51.694;6.256;2024-02-04T10:14:18;11.20;99.90
3923;DHT22;1976;51.694;6.256;2024-02-04T10:16:45;11.30;99.90
3923;DHT22;1976;51.694;6.256;2024-02-04T10:19:11;11.30;99.90
3923;DHT22;1976;51.694;6.256;2024-02-04T10:21:37;11.40;99.90
3923;DHT22;1976;51.694;6.256;2024-02-04T10:24:02;11.50;99.90
3923;DHT22;1976;51.694;6.256;2024-02-04T10:26:29;11.50;99.90
3923;DHT22;1976;51.694;6.256;2024-02-04T10:28:59;11.50;99.90
3923;DHT22;1976;51.694;6.256;2024-02-04T10:31:28;11.60;99.90
3923;DHT22;1976;51.694;6.256;2024-02-04T10:33:55;11.60;99.90
3923;DHT22;1976;51.694;6.256;2024-02-04T10:36:20;11.70;99.90
3923;DHT22;1976;51.694;6.256;2024-02-04T10:38:46;11.70;99.90
3923;DHT22;1976;51.694;6.256;2024-02-04T10:41:15;11.70;99.90
3923;DHT22;1976;51.694;6.256;2024-02-04T10:43:43;11.80;99.90
3923;DHT22;1976;51.694;6.256;2024-02-04T10:48:36;11.90;99.90
3923;DHT22;1976;51.694;6.256;2024-02-04T10:51:12;11.90;99.90
3923;DHT22;1976;51.694;6.256;2024-02-04T10:53:41;11.90;99.90
3923;DHT22;1976;51.694;6.256;2024-02-04T10:56:13;11.80;99.90
3923;DHT22;1976;51.694;6.256;2024-02-04T10:58:40;11.90;99.90
3923;DHT22;1976;51.694;6.256;2024-02-04T11:01:06;11.90;99.90
3923;DHT22;1976;51.694;6.256;2024-02-04T11:03:32;12.00;99.90
3923;DHT22;1976;51.694;6.256;2024-02-04T11:05:58;11.90;99.90
3923;DHT22;1976;51.694;6.256;2024-02-04T11:08:24;11.90;99.90
3923;DHT22;1976;51.694;6.256;2024-02-04T11:10:50;11.80;99.90
3923;DHT22;1976;51.694;6.256;2024-02-04T11:13:20;11.80;99.90
3923;DHT22;1976;51.694;6.256;2024-02-04T11:15:47;11.70;99.90
3923;DHT22;1976;51.694;6.256;2024-02-04T11:24:14;11.50;99.90
3923;DHT22;1976;51.694;6.256;2024-02-04T11:26:44;11.50;99.90
3923;DHT22;1976;51.694;6.256;2024-02-04T11:29:10;11.50;99.90
3923;DHT22;1976;51.694;6.256;2024-02-04T11:31:38;11.50;99.90
3923;DHT22;1976;51.694;6.256;2024-02-04T11:34:05;11.50;99.90
3923;DHT22;1976;51.694;6.256;2024-02-04T11:36:38;11.50;99.90
3923;DHT22;1976;51.694;6.256;2024-02-04T11:39:17;11.50;99.90
3923;DHT22;1976;51.694;6.256;2024-02-04T11:41:47;11.50;99.90
3923;DHT22;1976;51.694;6.256;2024-02-04T11:44:13;11.50;99.90
3923;DHT22;1976;51.694;6.256;2024-02-04T11:46:48;11.50;99.90
3923;DHT22;1976;51.694;6.256;2024-02-04T11:49:18;11.50;99.90
3923;DHT22;1976;51.694;6.256;2024-02-04T11:51:46;11.40;99.90
3923;DHT22;1976;51.694;6.256;2024-02-04T11:54:14;11.40;99.90
3923;DHT22;1976;51.694;6.256;2024-02-04T11:56:41;11.40;99.90
3923;DHT22;1976;51.694;6.256;2024-02-04T11:59:07;11.40;99.90
3923;DHT22;1976;51.694;6.256;2024-02-04T12:01:33;11.40;99.90
3923;DHT22;1976;51.694;6.256;2024-02-04T12:04:15;11.40;99.90
3923;DHT22;1976;51.694;6.256;2024-02-04T12:06:41;11.40;99.90
3923;DHT22;1976;51.694;6.256;2024-02-04T12:09:08;11.40;99.90
3923;DHT22;1976;51.694;6.256;2024-02-04T12:11:37;11.50;99.90
3923;DHT22;1976;51.694;6.256;2024-02-04T12:14:07;11.50;99.90
3923;DHT22;1976;51.694;6.256;2024-02-04T12:16:36;11.40;99.90
3923;DHT22;1976;51.694;6.256;2024-02-04T12:19:02;11.40;99.90
3923;DHT22;1976;51.694;6.256;2024-02-04T12:21:31;11.50;99.90
3923;DHT22;1976;51.694;6.256;2024-02-04T12:23:58;11.50;99.90
3923;DHT22;1976;51.694;6.256;2024-02-04T12:26:24;11.50;99.90
3923;DHT22;1976;51.694;6.256;2024-02-04T12:28:50;11.40;99.90
3923;DHT22;1976;51.694;6.256;2024-02-04T12:31:17;11.50;99.90
3923;DHT22;1976;51.694;6.256;2024-02-04T12:33:59;11.40;99.90
3923;DHT22;1976;51.694;6.256;2024-02-04T12:36:27;11.40;99.90
3923;DHT22;1976;51.694;6.256;2024-02-04T12:38:57;11.40;99.90
3923;DHT22;1976;51.694;6.256;2024-02-04T12:41:23;11.40;99.90
3923;DHT22;1976;51.694;6.256;2024-02-04T12:43:56;11.40;99.90
3923;DHT22;1976;51.694;6.256;2024-02-04T12:46:22;11.40;99.90
3923;DHT22;1976;51.694;6.256;2024-02-04T12:49:06;11.40;99.90
3923;DHT22;1976;51.694;6.256;2024-02-04T12:51:32;11.30;99.90
3923;DHT22;1976;51.694;6.256;2024-02-04T12:54:07;11.30;99.90
3923;DHT22;1976;51.694;6.256;2024-02-04T12:56:53;11.30;99.90
3923;DHT22;1976;51.694;6.256;2024-02-04T12:59:29;11.30;99.90
3923;DHT22;1976;51.694;6.256;2024-02-04T13:02:03;11.40;99.90
3923;DHT22;1976;51.694;6.256;2024-02-04T13:04:39;11.30;99.90
3923;DHT22;1976;51.694;6.256;2024-02-04T13:07:09;11.30;99.90
3923;DHT22;1976;51.694;6.256;2024-02-04T13:09:38;11.40;99.90
3923;DHT22;1976;51.694;6.256;2024-02-04T13:12:05;11.40;99.90
3923;DHT22;1976;51.694;6.256;2024-02-04T13:14:31;11.40;99.90
3923;DHT22;1976;51.694;6.256;2024-02-04T13:16:57;11.40;99.90
3923;DHT22;1976;51.694;6.256;2024-02-04T13:19:23;11.40;99.90
3923;DHT22;1976;51.694;6.256;2024-02-04T13:21:48;11.40;99.90
3923;DHT22;1976;51.694;6.256;2024-02-04T13:24:14;11.40;99.90
3923;DHT22;1976;51.694;6.256;2024-02-04T13:26:40;11.40;99.90
3923;DHT22;1976;51.694;6.256;2024-02-04T13:29:06;11.40;99.90
3923;DHT22;1976;51.694;6.256;2024-02-04T13:31:31;11.40;99.90
3923;DHT22;1976;51.694;6.256;2024-02-04T13:33:57;11.40;99.90
3923;DHT22;1976;51.694;6.256;2024-02-04T13:36:23;11.50;99.90
3923;DHT22;1976;51.694;6.256;2024-02-04T13:38:49;11.50;99.90
3923;DHT22;1976;51.694;6.256;2024-02-04T13:41:14;11.40;99.90
3923;DHT22;1976;51.694;6.256;2024-02-04T13:43:41;11.40;99.90
3923;DHT22;1976;51.694;6.256;2024-02-04T13:46:06;11.40;99.90
3923;DHT22;1976;51.694;6.256;2024-02-04T13:48:32;11.40;99.90
3923;DHT22;1976;51.694;6.256;2024-02-04T13:50:57;11.30;99.90
3923;DHT22;1976;51.694;6.256;2024-02-04T13:53:23;11.30;99.90
3923;DHT22;1976;51.694;6.256;2024-02-04T13:55:49;11.30;99.90
3923;DHT22;1976;51.694;6.256;2024-02-04T13:58:15;11.30;99.90
3923;DHT22;1976;51.694;6.256;2024-02-04T14:00:40;11.30;99.90
3923;DHT22;1976;51.694;6.256;2024-02-04T14:03:06;11.30;99.90
3923;DHT22;1976;51.694;6.256;2024-02-04T14:05:32;11.30;99.90
3923;DHT22;1976;51.694;6.256;2024-02-04T14:07:58;11.30;99.90
3923;DHT22;1976;51.694;6.256;2024-02-04T14:10:24;11.30;99.90
3923;DHT22;1976;51.694;6.256;2024-02-04T14:12:49;11.30;99.90
3923;DHT22;1976;51.694;6.256;2024-02-04T14:15:15;11.30;99.90
3923;DHT22;1976;51.694;6.256;2024-02-04T14:17:42;11.30;99.90
3923;DHT22;1976;51.694;6.256;2024-02-04T14:20:08;11.30;99.90
3923;DHT22;1976;51.694;6.256;2024-02-04T14:22:34;11.30;99.90
3923;DHT22;1976;51.694;6.256;2024-02-04T14:25:00;11.30;99.90
3923;DHT22;1976;51.694;6.256;2024-02-04T14:27:26;11.30;99.90
3923;DHT22;1976;51.694;6.256;2024-02-04T14:29:51;11.30;99.90
3923;DHT22;1976;51.694;6.256;2024-02-04T14:32:17;11.30;99.90
3923;DHT22;1976;51.694;6.256;2024-02-04T14:34:44;11.30;99.90
3923;DHT22;1976;51.694;6.256;2024-02-04T14:37:09;11.30;99.90
3923;DHT22;1976;51.694;6.256;2024-02-04T14:39:36;11.40;99.90
3923;DHT22;1976;51.694;6.256;2024-02-04T14:42:01;11.30;99.90
3923;DHT22;1976;51.694;6.256;2024-02-04T14:44:27;11.30;99.90
3923;DHT22;1976;51.694;6.256;2024-02-04T14:46:52;11.30;99.90
3923;DHT22;1976;51.694;6.256;2024-02-04T14:49:18;11.30;99.90
3923;DHT22;1976;51.694;6.256;2024-02-04T14:51:43;11.30;99.90
3923;DHT22;1976;51.694;6.256;2024-02-04T14:54:09;11.30;99.90
3923;DHT22;1976;51.694;6.256;2024-02-04T14:56:41;11.30;99.90
3923;DHT22;1976;51.694;6.256;2024-02-04T14:59:09;11.30;99.90
3923;DHT22;1976;51.694;6.256;2024-02-04T15:01:36;11.30;99.90
3923;DHT22;1976;51.694;6.256;2024-02-04T15:04:02;11.40;99.90
3923;DHT22;1976;51.694;6.256;2024-02-04T15:06:28;11.40;99.90
3923;DHT22;1976;51.694;6.256;2024-02-04T15:08:55;11.40;99.90
3923;DHT22;1976;51.694;6.256;2024-02-04T15:11:21;11.40;99.90
3923;DHT22;1976;51.694;6.256;2024-02-04T15:13:48;11.30;99.90
3923;DHT22;1976;51.694;6.256;2024-02-04T15:16:14;11.30;99.90
3923;DHT22;1976;51.694;6.256;2024-02-04T15:18:40;11.30;99.90
3923;DHT22;1976;51.694;6.256;2024-02-04T15:21:06;11.30;99.90
3923;DHT22;1976;51.694;6.256;2024-02-04T15:23:32;11.30;99.90
3923;DHT22;1976;51.694;6.256;2024-02-04T15:25:58;11.30;99.90
3923;DHT22;1976;51.694;6.256;2024-02-04T15:28:24;11.30;99.90
3923;DHT22;1976;51.694;6.256;2024-02-04T15:30:50;11.40;99.90
3923;DHT22;1976;51.694;6.256;2024-02-04T15:33:16;11.40;99.90
3923;DHT22;1976;51.694;6.256;2024-02-04T15:35:43;11.30;99.90
3923;DHT22;1976;51.694;6.256;2024-02-04T15:38:08;11.30;99.90
3923;DHT22;1976;51.694;6.256;2024-02-04T15:40:34;11.40;99.90
3923;DHT22;1976;51.694;6.256;2024-02-04T15:43:00;11.40;99.90
3923;DHT22;1976;51.694;6.256;2024-02-04T15:45:26;11.30;99.90
3923;DHT22;1976;51.694;6.256;2024-02-04T15:47:52;11.40;99.90
3923;DHT22;1976;51.694;6.256;2024-02-04T15:50:20;11.30;99.90
3923;DHT22;1976;51.694;6.256;2024-02-04T15:52:47;11.30;99.90
3923;DHT22;1976;51.694;6.256;2024-02-04T15:55:16;11.30;99.90
3923;DHT22;1976;51.694;6.256;2024-02-04T15:57:49;11.30;99.90
3923;DHT22;1976;51.694;6.256;2024-02-04T16:00:17;11.20;99.90
3923;DHT22;1976;51.694;6.256;2024-02-04T16:02:53;11.20;99.90
3923;DHT22;1976;51.694;6.256;2024-02-04T16:05:19;11.30;99.90
3923;DHT22;1976;51.694;6.256;2024-02-04T16:07:46;11.30;99.90
3923;DHT22;1976;51.694;6.256;2024-02-04T16:10:13;11.20;99.90